createdAt,value
2023-03-04T00:02:13.061Z,99555.48
2023-03-04T00:04:40.681Z,99554.96
2023-03-04T00:07:08.138Z,99549.90
2023-03-04T00:09:37.290Z,99551.58
2023-03-04T00:12:08.389Z,99545.80
2023-03-04T00:14:36.196Z,99546.46
2023-03-04T00:17:08.059Z,99542.61
2023-03-04T00:19:36.256Z,99541.48
2023-03-04T00:22:04.161Z,99537.15
2023-03-04T00:24:39.476Z,99533.21
2023-03-04T00:27:08.421Z,99527.39
2023-03-04T00:29:35.963Z,99523.54
2023-03-04T00:32:06.868Z,99522.45
2023-03-04T00:34:34.677Z,99526.18
2023-03-04T00:37:03.559Z,99525.12
2023-03-04T00:39:31.067Z,99518.60
2023-03-04T00:41:58.947Z,99515.64
2023-03-04T00:44:26.269Z,99521.23
2023-03-04T00:46:54.171Z,99514.69
2023-03-04T00:49:21.499Z,99515.69
2023-03-04T00:51:49.173Z,99513.29
2023-03-04T00:54:16.781Z,99514.90
2023-03-04T00:56:45.099Z,99514.73
2023-03-04T00:59:12.516Z,99511.55
2023-03-04T01:01:40.018Z,99511.11
2023-03-04T01:04:09.207Z,99507.75
2023-03-04T01:06:37.500Z,99506.71
2023-03-04T01:09:06.218Z,99506.40
2023-03-04T01:11:33.670Z,99502.89
2023-03-04T01:14:01.211Z,99505.52
2023-03-04T01:16:28.924Z,99500.39
2023-03-04T01:18:56.487Z,99493.70
2023-03-04T01:21:23.999Z,99489.64
2023-03-04T01:23:55.936Z,99485.09
2023-03-04T01:26:23.881Z,99489.31
2023-03-04T01:28:51.091Z,99488.60
2023-03-04T01:31:18.429Z,99486.66
2023-03-04T01:33:45.796Z,99479.67
2023-03-04T01:36:13.053Z,99476.77
2023-03-04T01:38:40.781Z,99469.25
2023-03-04T01:41:08.472Z,99469.34
2023-03-04T01:43:38.071Z,99463.48
2023-03-04T01:46:05.738Z,99463.63
2023-03-04T01:48:36.933Z,99462.03
2023-03-04T01:51:04.987Z,99462.52
2023-03-04T01:53:32.752Z,99456.77
2023-03-04T01:56:05.469Z,99458.32
2023-03-04T01:58:38.707Z,99447.88
2023-03-04T02:01:06.559Z,99443.05
2023-03-04T02:03:34.172Z,99446.56
2023-03-04T02:06:02.108Z,99440.38
2023-03-04T02:08:29.727Z,99439.32
2023-03-04T02:11:02.131Z,99434.81
2023-03-04T02:13:29.412Z,99434.64
2023-03-04T02:15:56.843Z,99436.39
2023-03-04T02:18:24.215Z,99439.54
2023-03-04T02:21:09.842Z,99433.56
2023-03-04T02:23:41.893Z,99435.04
2023-03-04T02:26:16.265Z,99433.55
2023-03-04T02:28:44.132Z,99429.34
2023-03-04T02:31:20.177Z,99429.17
2023-03-04T02:33:47.746Z,99424.25
2023-03-04T02:36:15.046Z,99418.94
2023-03-04T02:38:44.203Z,99415.97
2023-03-04T02:41:13.092Z,99408.89
2023-03-04T02:43:45.511Z,99409.39
2023-03-04T02:46:13.866Z,99407.01
2023-03-04T02:48:42.538Z,99408.86
2023-03-04T02:51:10.103Z,99408.17
2023-03-04T02:53:39.611Z,99396.46
2023-03-04T02:56:07.416Z,99384.64
2023-03-04T02:58:38.121Z,99369.45
2023-03-04T03:01:05.834Z,99362.94
2023-03-04T03:03:33.138Z,99377.98
2023-03-04T03:06:00.412Z,99376.55
2023-03-04T03:08:28.393Z,99370.02
2023-03-04T03:10:56.145Z,99372.77
2023-03-04T03:13:24.542Z,99374.98
2023-03-04T03:15:56.723Z,99372.10
2023-03-04T03:18:26.258Z,99375.13
2023-03-04T03:20:53.445Z,99368.85
2023-03-04T03:23:20.706Z,99360.63
2023-03-04T03:25:48.482Z,99354.45
2023-03-04T03:28:17.979Z,99355.27
2023-03-04T03:30:45.181Z,99362.33
2023-03-04T03:33:12.577Z,99356.30
2023-03-04T03:35:41.578Z,99350.77
2023-03-04T03:38:09.828Z,99351.66
2023-03-04T03:40:37.190Z,99345.61
2023-03-04T03:43:04.480Z,99349.18
2023-03-04T03:45:31.751Z,99345.30
2023-03-04T03:47:59.252Z,99339.30
2023-03-04T03:50:28.081Z,99340.31
2023-03-04T03:52:56.405Z,99340.15
2023-03-04T03:55:24.004Z,99337.04
2023-03-04T03:57:51.212Z,99336.34
2023-03-04T04:00:18.551Z,99331.57
2023-03-04T04:02:46.164Z,99327.11
2023-03-04T04:05:14.118Z,99323.83
2023-03-04T04:07:41.537Z,99315.89
2023-03-04T04:10:08.957Z,99312.23
2023-03-04T04:12:36.269Z,99310.39
2023-03-04T04:15:10.724Z,99302.29
2023-03-04T04:17:40.018Z,99298.43
2023-03-04T04:20:07.682Z,99295.23
2023-03-04T04:22:38.781Z,99293.29
2023-03-04T04:25:08.542Z,99291.56
2023-03-04T04:27:37.251Z,99283.72
2023-03-04T04:30:04.998Z,99277.73
2023-03-04T04:32:33.005Z,99278.48
2023-03-04T04:35:00.482Z,99276.45
2023-03-04T04:37:27.693Z,99274.15
2023-03-04T04:39:55.208Z,99267.40
2023-03-04T04:42:22.524Z,99260.71
2023-03-04T04:44:52.540Z,99255.92
2023-03-04T04:47:19.933Z,99253.47
2023-03-04T04:49:47.129Z,99245.95
2023-03-04T04:52:14.734Z,99247.18
2023-03-04T04:54:41.992Z,99250.01
2023-03-04T04:57:09.154Z,99243.82
2023-03-04T04:59:36.765Z,99243.19
2023-03-04T05:02:05.092Z,99238.16
2023-03-04T05:04:32.648Z,99236.27
2023-03-04T05:07:00.435Z,99235.16
2023-03-04T05:09:29.490Z,99231.86
2023-03-04T05:11:56.604Z,99233.98
2023-03-04T05:14:26.827Z,99229.50
2023-03-04T05:16:54.062Z,99223.23
2023-03-04T05:19:21.173Z,99211.65
2023-03-04T05:21:50.096Z,99208.11
2023-03-04T05:24:17.280Z,99207.56
2023-03-04T05:26:47.151Z,99209.80
2023-03-04T05:29:14.318Z,99199.06
2023-03-04T05:31:41.519Z,99191.35
2023-03-04T05:34:08.722Z,99193.55
2023-03-04T05:36:36.025Z,99186.67
2023-03-04T05:39:04.282Z,99176.83
2023-03-04T05:41:32.754Z,99165.06
2023-03-04T05:44:00.258Z,99168.80
2023-03-04T05:46:27.684Z,99159.64
2023-03-04T05:48:54.815Z,99160.88
2023-03-04T05:51:22.454Z,99164.38
2023-03-04T05:53:49.734Z,99168.04
2023-03-04T05:56:17.476Z,99164.09
2023-03-04T05:58:47.174Z,99164.75
2023-03-04T06:01:18.569Z,99166.61
2023-03-04T06:03:48.360Z,99167.38
2023-03-04T06:06:53.155Z,99165.45
2023-03-04T06:09:21.353Z,99163.23
2023-03-04T06:11:48.473Z,99168.41
2023-03-04T06:14:17.306Z,99159.45
2023-03-04T06:16:46.465Z,99158.85
2023-03-04T06:19:13.827Z,99145.83
2023-03-04T06:21:42.401Z,99144.73
2023-03-04T06:24:09.694Z,99134.45
2023-03-04T06:26:36.911Z,99135.34
2023-03-04T06:29:04.982Z,99135.81
2023-03-04T06:31:32.398Z,99133.99
2023-03-04T06:33:59.732Z,99137.84
2023-03-04T06:36:27.162Z,99129.88
2023-03-04T06:38:54.986Z,99135.30
2023-03-04T06:41:23.020Z,99136.21
2023-03-04T06:43:53.089Z,99132.75
2023-03-04T06:46:20.343Z,99125.96
2023-03-04T06:48:48.557Z,99118.86
2023-03-04T06:51:15.807Z,99113.84
2023-03-04T06:53:43.078Z,99108.39
2023-03-04T06:56:15.740Z,99105.45
2023-03-04T06:58:44.110Z,99095.55
2023-03-04T07:01:14.478Z,99097.80
2023-03-04T07:03:42.426Z,99089.76
2023-03-04T07:06:13.289Z,99084.83
2023-03-04T07:08:47.301Z,99084.48
2023-03-04T07:11:15.840Z,99084.83
2023-03-04T07:13:43.121Z,99074.91
2023-03-04T07:16:11.223Z,99070.56
2023-03-04T07:18:39.917Z,99061.41
2023-03-04T07:21:10.298Z,99060.80
2023-03-04T07:23:40.024Z,99054.24
2023-03-04T07:26:07.380Z,99050.50
2023-03-04T07:28:35.176Z,99044.75
2023-03-04T07:31:23.111Z,99031.30
2023-03-04T07:33:50.688Z,99033.36
2023-03-04T07:36:19.402Z,99025.98
2023-03-04T07:38:47.070Z,99027.05
2023-03-04T07:41:14.375Z,99021.91
2023-03-04T07:43:41.603Z,99014.89
2023-03-04T07:46:09.245Z,99022.47
2023-03-04T07:48:36.890Z,99017.48
2023-03-04T07:51:06.931Z,99017.77
2023-03-04T07:53:34.340Z,99016.34
2023-03-04T07:56:02.732Z,99011.86
2023-03-04T07:58:30.807Z,99014.04
2023-03-04T08:00:58.280Z,99006.77
2023-03-04T08:03:26.036Z,99007.03
2023-03-04T08:05:53.835Z,99014.02
2023-03-04T08:08:21.042Z,99010.80
2023-03-04T08:10:49.463Z,99009.60
2023-03-04T08:13:16.640Z,99003.58
2023-03-04T08:15:43.865Z,99004.41
2023-03-04T08:18:14.997Z,98997.30
2023-03-04T08:20:42.993Z,98996.82
2023-03-04T08:23:13.134Z,98994.47
2023-03-04T08:25:44.185Z,98995.09
2023-03-04T08:28:13.083Z,98993.75
2023-03-04T08:30:41.113Z,98990.44
2023-03-04T08:33:09.451Z,98989.28
2023-03-04T08:35:37.687Z,98989.89
2023-03-04T08:38:05.605Z,98990.02
2023-03-04T08:40:33.471Z,98987.43
2023-03-04T08:43:05.433Z,98989.02
2023-03-04T08:45:33.212Z,98989.27
2023-03-04T08:48:00.436Z,98988.50
2023-03-04T08:50:28.749Z,98982.48
2023-03-04T08:52:56.099Z,98983.67
2023-03-04T08:55:25.294Z,98984.96
2023-03-04T08:57:52.619Z,98984.77
2023-03-04T09:00:21.033Z,98986.20
2023-03-04T09:03:08.148Z,98985.85
2023-03-04T09:05:36.626Z,98979.21
2023-03-04T09:08:04.142Z,98981.88
2023-03-04T09:10:31.514Z,98980.55
2023-03-04T09:13:00.850Z,98979.27
2023-03-04T09:15:28.468Z,98975.76
2023-03-04T09:17:55.739Z,98974.64
2023-03-04T09:20:23.123Z,98970.37
2023-03-04T09:22:51.292Z,98969.76
2023-03-04T09:25:18.509Z,98965.64
2023-03-04T09:27:45.777Z,98966.46
2023-03-04T09:30:13.198Z,98974.11
2023-03-04T09:32:41.266Z,98966.27
2023-03-04T09:35:09.782Z,98965.59
2023-03-04T09:37:37.884Z,98967.21
2023-03-04T09:40:07.826Z,98962.84
2023-03-04T09:42:40.215Z,98966.36
2023-03-04T09:45:13.237Z,98962.11
2023-03-04T09:47:40.839Z,98956.57
2023-03-04T09:50:08.854Z,98949.71
2023-03-04T09:52:57.599Z,98951.12
2023-03-04T09:55:25.022Z,98949.75
2023-03-04T09:57:58.459Z,98952.46
2023-03-04T10:00:27.620Z,98947.52
2023-03-04T10:03:05.906Z,98951.31
2023-03-04T10:05:34.154Z,98953.20
2023-03-04T10:08:18.537Z,98952.28
2023-03-04T10:10:46.063Z,98948.22
2023-03-04T10:13:19.585Z,98943.10
2023-03-04T10:15:48.083Z,98943.77
2023-03-04T10:18:21.713Z,98940.38
2023-03-04T10:20:58.039Z,98942.08
2023-03-04T10:23:26.231Z,98942.30
2023-03-04T10:25:59.202Z,98940.24
2023-03-04T10:28:27.594Z,98942.42
2023-03-04T10:31:13.856Z,98938.98
2023-03-04T10:33:42.411Z,98937.10
2023-03-04T10:36:28.192Z,98937.08
2023-03-04T10:38:59.114Z,98931.02
2023-03-04T10:41:27.469Z,98927.77
2023-03-04T10:44:00.806Z,98930.61
2023-03-04T10:46:28.199Z,98934.44
2023-03-04T10:48:55.363Z,98931.38
2023-03-04T10:51:23.755Z,98928.00
2023-03-04T10:53:58.451Z,98921.61
2023-03-04T10:56:45.998Z,98916.84
2023-03-04T10:59:32.294Z,98900.08
2023-03-04T11:02:27.475Z,98887.82
2023-03-04T11:04:56.232Z,98875.58
2023-03-04T11:07:24.189Z,98871.86
2023-03-04T11:09:51.636Z,98870.13
2023-03-04T11:12:20.273Z,98863.35
2023-03-04T11:14:50.916Z,98857.92
2023-03-04T11:17:22.877Z,98854.33
2023-03-04T11:19:54.450Z,98857.36
2023-03-04T11:22:21.986Z,98850.13
2023-03-04T11:24:57.033Z,98848.83
2023-03-04T11:27:26.713Z,98840.53
2023-03-04T11:30:12.729Z,98847.52
2023-03-04T11:32:43.614Z,98846.65
2023-03-04T11:35:20.217Z,98843.77
2023-03-04T11:37:54.142Z,98847.35
2023-03-04T11:40:41.324Z,98840.39
2023-03-04T11:43:20.218Z,98838.57
2023-03-04T11:46:01.571Z,98839.80
2023-03-04T11:48:45.241Z,98839.96
2023-03-04T11:51:28.088Z,98840.75
2023-03-04T11:54:14.440Z,98843.67
2023-03-04T11:56:50.704Z,98839.92
2023-03-04T11:59:33.600Z,98837.15
2023-03-04T12:02:10.252Z,98834.92
2023-03-04T12:04:54.689Z,98837.34
2023-03-04T12:07:38.100Z,98832.79
2023-03-04T12:10:06.476Z,98830.81
2023-03-04T12:12:33.873Z,98833.66
2023-03-04T12:15:08.261Z,98827.64
2023-03-04T12:17:39.115Z,98823.92
2023-03-04T12:20:07.682Z,98819.32
2023-03-04T12:22:51.275Z,98824.88
2023-03-04T12:25:24.566Z,98818.95
2023-03-04T12:28:03.286Z,98823.77
2023-03-04T12:30:34.643Z,98825.94
2023-03-04T12:33:15.155Z,98827.29
2023-03-04T12:35:52.271Z,98827.00
2023-03-04T12:38:35.340Z,98831.03
2023-03-04T12:41:23.095Z,98830.45
2023-03-04T12:43:56.408Z,98829.65
2023-03-04T12:46:35.942Z,98829.54
2023-03-04T12:49:16.716Z,98829.81
2023-03-04T12:52:03.455Z,98834.91
2023-03-04T12:54:32.516Z,98833.30
2023-03-04T12:57:17.588Z,98832.41
2023-03-04T13:00:05.019Z,98831.12
2023-03-04T13:03:02.202Z,98834.63
2023-03-04T13:05:35.639Z,98830.80
2023-03-04T13:08:10.100Z,98829.77
2023-03-04T13:10:37.754Z,98832.10
2023-03-04T13:13:05.564Z,98833.45
2023-03-04T13:15:34.776Z,98831.02
2023-03-04T13:18:04.511Z,98830.70
2023-03-04T13:20:38.047Z,98828.80
2023-03-04T13:23:08.467Z,98832.92
2023-03-04T13:25:42.594Z,98828.70
2023-03-04T13:28:18.124Z,98831.98
2023-03-04T13:30:51.314Z,98835.63
2023-03-04T13:33:21.249Z,98833.75
2023-03-04T13:35:48.724Z,98833.07
2023-03-04T13:38:20.933Z,98827.68
2023-03-04T13:41:07.084Z,98824.48
2023-03-04T13:43:44.410Z,98824.81
2023-03-04T13:46:17.981Z,98816.61
2023-03-04T13:48:51.326Z,98809.83
2023-03-04T13:51:32.845Z,98807.08
2023-03-04T13:54:00.431Z,98805.37
2023-03-04T13:56:28.815Z,98800.42
2023-03-04T13:59:03.451Z,98800.92
2023-03-04T14:01:32.086Z,98794.11
2023-03-04T14:03:59.608Z,98796.70
2023-03-04T14:06:27.914Z,98792.79
2023-03-04T14:08:55.462Z,98793.00
2023-03-04T14:11:28.093Z,98786.15
2023-03-04T14:13:56.429Z,98786.66
2023-03-04T14:16:28.362Z,98789.39
2023-03-04T14:19:02.791Z,98794.56
2023-03-04T14:21:30.753Z,98803.29
2023-03-04T14:23:59.651Z,98804.20
2023-03-04T14:26:27.150Z,98805.14
2023-03-04T14:28:57.098Z,98804.68
2023-03-04T14:31:24.376Z,98805.58
2023-03-04T14:34:01.642Z,98811.48
2023-03-04T14:36:32.976Z,98809.96
2023-03-04T14:39:00.869Z,98810.64
2023-03-04T14:41:32.760Z,98809.94
2023-03-04T14:44:03.235Z,98807.24
2023-03-04T14:46:39.952Z,98804.15
2023-03-04T14:49:10.609Z,98807.98
2023-03-04T14:51:51.978Z,98807.98
2023-03-04T14:54:40.908Z,98804.71
2023-03-04T14:57:23.708Z,98803.45
2023-03-04T14:59:51.899Z,98797.85
2023-03-04T15:02:20.656Z,98796.45
2023-03-04T15:04:48.018Z,98798.23
2023-03-04T15:07:16.408Z,98793.95
2023-03-04T15:09:49.265Z,98791.69
2023-03-04T15:12:21.452Z,98784.39
2023-03-04T15:14:56.398Z,98786.56
2023-03-04T15:17:24.960Z,98784.69
2023-03-04T15:19:59.699Z,98781.59
2023-03-04T15:22:27.036Z,98782.27
2023-03-04T15:24:54.402Z,98784.14
2023-03-04T15:27:24.253Z,98780.17
2023-03-04T15:29:55.604Z,98774.96
2023-03-04T15:32:23.879Z,98775.05
2023-03-04T15:34:51.327Z,98773.55
2023-03-04T15:37:21.897Z,98771.56
2023-03-04T15:39:50.227Z,98773.45
2023-03-04T15:42:17.748Z,98773.73
2023-03-04T15:44:46.545Z,98775.81
2023-03-04T15:47:13.845Z,98775.42
2023-03-04T15:49:42.592Z,98773.77
2023-03-04T15:52:13.335Z,98772.77
2023-03-04T15:54:40.532Z,98773.99
2023-03-04T15:57:09.002Z,98775.81
2023-03-04T15:59:36.579Z,98772.19
2023-03-04T16:02:05.858Z,98769.88
2023-03-04T16:04:33.129Z,98770.11
2023-03-04T16:07:00.773Z,98766.78
2023-03-04T16:09:27.963Z,98770.45
2023-03-04T16:11:56.871Z,98766.14
2023-03-04T16:14:24.413Z,98769.88
2023-03-04T16:16:52.804Z,98765.94
2023-03-04T16:19:20.308Z,98766.02
2023-03-04T16:21:49.831Z,98762.75
2023-03-04T16:24:17.740Z,98761.64
2023-03-04T16:26:44.905Z,98764.31
2023-03-04T16:29:12.760Z,98769.52
2023-03-04T16:31:40.018Z,98766.46
2023-03-04T16:34:07.426Z,98762.81
2023-03-04T16:36:35.440Z,98763.91
2023-03-04T16:39:03.637Z,98767.73
2023-03-04T16:41:36.769Z,98757.77
2023-03-04T16:44:04.153Z,98754.10
2023-03-04T16:46:33.407Z,98747.92
2023-03-04T16:49:01.740Z,98745.09
2023-03-04T16:51:30.408Z,98745.92
2023-03-04T16:53:59.918Z,98740.58
2023-03-04T16:56:27.301Z,98736.51
2023-03-04T16:58:55.056Z,98734.48
2023-03-04T17:01:23.632Z,98737.23
2023-03-04T17:03:51.172Z,98742.61
2023-03-04T17:06:20.489Z,98742.23
2023-03-04T17:08:48.145Z,98735.77
2023-03-04T17:11:18.931Z,98734.23
2023-03-04T17:13:48.498Z,98740.23
2023-03-04T17:16:16.648Z,98734.23
2023-03-04T17:18:45.731Z,98732.96
2023-03-04T17:21:14.079Z,98726.42
2023-03-04T17:23:41.637Z,98729.70
2023-03-04T17:26:15.328Z,98728.05
2023-03-04T17:28:43.617Z,98723.04
2023-03-04T17:31:11.320Z,98719.44
2023-03-04T17:33:41.301Z,98718.16
2023-03-04T17:36:12.350Z,98714.47
2023-03-04T17:38:39.579Z,98712.93
2023-03-04T17:41:07.623Z,98710.96
2023-03-04T17:43:34.971Z,98712.20
2023-03-04T17:46:05.984Z,98709.48
2023-03-04T17:48:33.598Z,98703.33
2023-03-04T17:51:00.938Z,98706.23
2023-03-04T17:53:28.472Z,98699.85
2023-03-04T17:55:59.786Z,98697.51
2023-03-04T17:58:27.609Z,98698.45
2023-03-04T18:00:59.634Z,98688.21
2023-03-04T18:03:26.965Z,98684.71
2023-03-04T18:05:54.318Z,98683.15
2023-03-04T18:08:24.069Z,98681.21
2023-03-04T18:10:52.002Z,98673.52
2023-03-04T18:13:20.279Z,98673.80
2023-03-04T18:15:53.772Z,98671.93
2023-03-04T18:18:22.098Z,98669.34
2023-03-04T18:20:49.276Z,98665.57
2023-03-04T18:23:17.584Z,98663.84
2023-03-04T18:25:45.098Z,98661.16
2023-03-04T18:28:12.557Z,98660.09
2023-03-04T18:30:40.815Z,98658.60
2023-03-04T18:33:08.208Z,98655.19
2023-03-04T18:35:35.585Z,98656.59
2023-03-04T18:38:03.024Z,98656.99
2023-03-04T18:40:31.396Z,98656.66
2023-03-04T18:42:59.783Z,98655.02
2023-03-04T18:45:28.548Z,98648.88
2023-03-04T18:47:56.245Z,98643.94
2023-03-04T18:50:23.651Z,98633.99
2023-03-04T18:52:54.422Z,98635.61
2023-03-04T18:55:22.193Z,98638.75
2023-03-04T18:57:50.346Z,98639.55
2023-03-04T19:00:21.428Z,98634.68
2023-03-04T19:02:53.423Z,98637.39
2023-03-04T19:05:21.639Z,98629.84
2023-03-04T19:07:49.126Z,98630.85
2023-03-04T19:10:16.962Z,98627.44
2023-03-04T19:12:47.095Z,98624.08
2023-03-04T19:15:14.407Z,98620.13
2023-03-04T19:17:44.910Z,98625.39
2023-03-04T19:20:13.545Z,98624.30
2023-03-04T19:22:43.192Z,98625.34
2023-03-04T19:25:10.480Z,98620.17
2023-03-04T19:27:38.245Z,98613.60
2023-03-04T19:30:06.176Z,98612.05
2023-03-04T19:32:33.966Z,98606.36
2023-03-04T19:35:02.324Z,98604.61
2023-03-04T19:37:29.837Z,98605.96
2023-03-04T19:39:58.077Z,98602.69
2023-03-04T19:42:25.747Z,98600.78
2023-03-04T19:44:53.487Z,98597.20
2023-03-04T19:47:22.115Z,98596.38
2023-03-04T19:49:49.343Z,98595.15
2023-03-04T19:52:16.502Z,98596.23
2023-03-04T19:54:44.346Z,98595.02
2023-03-04T19:57:11.780Z,98592.75
2023-03-04T19:59:38.982Z,98599.22
2023-03-04T20:02:08.018Z,98592.22
2023-03-04T20:04:35.590Z,98593.44
2023-03-04T20:07:03.501Z,98589.92
2023-03-04T20:09:30.814Z,98586.16
2023-03-04T20:11:59.472Z,98581.43
2023-03-04T20:14:27.524Z,98582.57
2023-03-04T20:16:58.528Z,98578.92
2023-03-04T20:19:26.229Z,98575.71
2023-03-04T20:21:53.868Z,98576.11
2023-03-04T20:24:22.817Z,98577.72
2023-03-04T20:26:53.287Z,98579.89
2023-03-04T20:29:20.483Z,98578.00
2023-03-04T20:31:48.384Z,98584.61
2023-03-04T20:34:15.959Z,98584.52
2023-03-04T20:36:43.537Z,98577.73
2023-03-04T20:39:26.997Z,98585.29
2023-03-04T20:41:56.008Z,98587.32
2023-03-04T20:44:23.514Z,98591.11
2023-03-04T20:46:51.721Z,98600.05
2023-03-04T20:49:22.806Z,98627.69
2023-03-04T20:51:50.617Z,98649.45
2023-03-04T20:54:17.903Z,98660.45
2023-03-04T20:56:47.107Z,98663.91
2023-03-04T20:59:14.395Z,98658.15
2023-03-04T21:01:42.252Z,98663.94
2023-03-04T21:04:09.606Z,98674.67
2023-03-04T21:06:38.320Z,98681.23
2023-03-04T21:09:09.528Z,98691.04
2023-03-04T21:11:40.303Z,98699.58
2023-03-04T21:14:15.079Z,98714.09
2023-03-04T21:16:44.208Z,98723.77
2023-03-04T21:19:15.666Z,98720.05
2023-03-04T21:21:47.343Z,98731.59
2023-03-04T21:24:15.836Z,98745.46
2023-03-04T21:26:44.959Z,98751.67
2023-03-04T21:29:12.268Z,98758.19
2023-03-04T21:31:40.373Z,98759.23
2023-03-04T21:34:09.721Z,98764.23
2023-03-04T21:36:37.211Z,98767.41
2023-03-04T21:39:11.109Z,98766.98
2023-03-04T21:41:38.484Z,98775.93
2023-03-04T21:44:05.783Z,98758.05
2023-03-04T21:46:35.103Z,98755.02
2023-03-04T21:49:02.345Z,98753.14
2023-03-04T21:51:35.562Z,98750.16
2023-03-04T21:54:04.497Z,98745.83
2023-03-04T21:56:31.727Z,98745.84
2023-03-04T21:58:59.830Z,98753.38
2023-03-04T22:01:27.249Z,98743.89
2023-03-04T22:03:54.448Z,98737.60
2023-03-04T22:06:23.094Z,98737.86
2023-03-04T22:08:52.278Z,98734.94
2023-03-04T22:11:21.157Z,98733.11
2023-03-04T22:13:50.599Z,98736.77
2023-03-04T22:16:21.271Z,98735.56
2023-03-04T22:18:48.578Z,98737.75
2023-03-04T22:21:39.171Z,98741.21
2023-03-04T22:24:08.140Z,98749.77
2023-03-04T22:26:38.315Z,98749.41
2023-03-04T22:29:07.135Z,98750.27
2023-03-04T22:31:36.338Z,98760.23
2023-03-04T22:34:09.100Z,98758.27
2023-03-04T22:36:39.348Z,98760.27
2023-03-04T22:39:08.837Z,98769.02
2023-03-04T22:41:37.820Z,98772.17
2023-03-04T22:44:06.842Z,98769.10
2023-03-04T22:46:36.586Z,98776.34
2023-03-04T22:49:06.595Z,98786.25
2023-03-04T22:51:35.298Z,98801.02
2023-03-04T22:54:04.202Z,98800.11
2023-03-04T22:56:33.552Z,98791.36
2023-03-04T22:59:02.232Z,98799.45
2023-03-04T23:01:36.808Z,98813.02
2023-03-04T23:04:06.183Z,98819.17
2023-03-04T23:06:35.244Z,98834.79
2023-03-04T23:09:06.251Z,98836.81
2023-03-04T23:11:39.813Z,98846.84
2023-03-04T23:14:08.742Z,98851.00
2023-03-04T23:16:44.862Z,98850.98
2023-03-04T23:19:14.975Z,98852.57
2023-03-04T23:21:43.587Z,98851.22
2023-03-04T23:24:12.844Z,98848.52
2023-03-04T23:26:41.806Z,98848.84
2023-03-04T23:29:11.633Z,98854.77
2023-03-04T23:31:41.388Z,98853.35
2023-03-04T23:34:11.693Z,98860.61
2023-03-04T23:36:41.437Z,98857.95
2023-03-04T23:39:11.646Z,98856.23
2023-03-04T23:41:41.915Z,98859.23
2023-03-04T23:44:11.230Z,98855.21
2023-03-04T23:46:46.369Z,98858.46
2023-03-04T23:49:16.654Z,98860.63
2023-03-04T23:51:45.829Z,98862.13
2023-03-04T23:54:14.706Z,98862.69
2023-03-04T23:56:43.803Z,98864.34
2023-03-04T23:59:12.869Z,98866.57
